createdAt,value
2022-11-28T00:04:53.709Z,54.06
2022-11-28T00:09:56.345Z,53.82
2022-11-28T00:14:58.773Z,54.21
2022-11-28T00:20:01.024Z,54.06
2022-11-28T00:25:03.228Z,54.60
2022-11-28T00:30:06.375Z,54.13
2022-11-28T00:35:08.663Z,54.37
2022-11-28T00:40:11.467Z,54.14
2022-11-28T00:45:13.982Z,54.65
2022-11-28T00:50:16.508Z,54.54
2022-11-28T00:55:18.719Z,54.67
2022-11-28T01:00:21.542Z,54.64
2022-11-28T01:05:23.861Z,54.95
2022-11-28T01:10:27.454Z,54.85
2022-11-28T01:15:29.750Z,55.21
2022-11-28T01:20:32.330Z,55.31
2022-11-28T01:25:34.566Z,55.71
2022-11-28T01:30:37.008Z,56.53
2022-11-28T01:35:39.375Z,57.32
2022-11-28T01:40:46.855Z,58.28
2022-11-28T01:45:49.495Z,58.59
2022-11-28T01:50:55.156Z,59.00
2022-11-28T01:56:15.903Z,59.66
2022-11-28T02:01:19.955Z,59.82
2022-11-28T02:06:25.011Z,60.98
2022-11-28T02:11:38.971Z,61.29
2022-11-28T02:17:11.816Z,62.28
2022-11-28T02:22:14.004Z,63.38
2022-11-28T02:27:28.388Z,63.96
2022-11-28T02:32:44.958Z,64.09
2022-11-28T02:38:13.645Z,63.94
2022-11-28T02:43:27.293Z,64.03
2022-11-28T02:48:38.451Z,64.66
2022-11-28T02:53:44.393Z,65.42
2022-11-28T02:58:46.753Z,66.36
2022-11-28T03:04:06.805Z,66.11
2022-11-28T03:09:49.751Z,65.64
2022-11-28T03:15:08.218Z,66.33
2022-11-28T03:20:26.400Z,66.36
2022-11-28T03:25:40.941Z,66.34
2022-11-28T03:30:51.412Z,66.08
2022-11-28T03:36:01.997Z,66.82
2022-11-28T03:41:11.163Z,66.61
2022-11-28T03:46:17.372Z,66.18
2022-11-28T03:51:26.200Z,66.40
2022-11-28T03:56:55.515Z,66.44
2022-11-28T04:02:04.046Z,66.89
2022-11-28T04:07:30.250Z,66.28
2022-11-28T04:13:01.198Z,66.19
2022-11-28T04:18:11.485Z,66.98
2022-11-28T04:23:15.670Z,67.95
2022-11-28T04:28:22.029Z,66.57
2022-11-28T04:33:27.071Z,66.96
2022-11-28T04:38:32.612Z,66.87
2022-11-28T04:43:39.180Z,66.38
2022-11-28T04:48:42.158Z,66.34
2022-11-28T04:54:12.719Z,65.95
2022-11-28T04:59:16.196Z,66.78
2022-11-28T05:04:18.597Z,66.68
2022-11-28T05:09:20.929Z,66.07
2022-11-28T05:14:23.745Z,65.88
2022-11-28T05:19:26.161Z,66.46
2022-11-28T05:24:42.794Z,66.59
2022-11-28T05:29:52.084Z,67.11
2022-11-28T05:34:54.954Z,67.82
2022-11-28T05:39:57.579Z,67.57
2022-11-28T05:44:59.805Z,67.62
2022-11-28T05:50:02.285Z,68.01
2022-11-28T05:55:04.974Z,67.57
2022-11-28T06:00:08.100Z,67.82
2022-11-28T06:05:34.571Z,68.05
2022-11-28T06:10:32.598Z,67.48
2022-11-28T06:15:37.993Z,67.65
2022-11-28T06:20:41.003Z,67.08
2022-11-28T06:25:43.319Z,66.71
2022-11-28T06:30:45.810Z,67.31
2022-11-28T06:35:48.080Z,68.14
2022-11-28T06:40:50.399Z,67.32
2022-11-28T06:45:53.247Z,67.24
2022-11-28T06:50:55.841Z,67.65
2022-11-28T06:55:58.200Z,67.41
2022-11-28T07:01:07.878Z,67.67
2022-11-28T07:06:11.033Z,67.32
2022-11-28T07:11:16.237Z,67.50
2022-11-28T07:16:26.462Z,68.07
2022-11-28T07:21:29.914Z,69.06
2022-11-28T07:26:33.171Z,68.17
2022-11-28T07:31:37.563Z,68.50
2022-11-28T07:36:39.954Z,69.03
2022-11-28T07:41:42.301Z,68.52
2022-11-28T07:52:08.487Z,69.21
2022-11-28T07:57:12.467Z,68.87
2022-11-28T08:07:39.875Z,68.96
2022-11-28T08:12:43.195Z,68.57
2022-11-28T08:17:45.896Z,68.17
2022-11-28T08:22:48.325Z,67.16
2022-11-28T08:27:50.555Z,67.14
2022-11-28T08:32:52.932Z,66.63
2022-11-28T08:37:58.994Z,65.99
2022-11-28T08:43:04.589Z,66.58
2022-11-28T08:48:07.035Z,65.90
2022-11-28T08:53:09.473Z,65.16
2022-11-28T08:58:12.700Z,64.83
2022-11-28T09:03:19.993Z,64.53
2022-11-28T09:08:22.416Z,64.40
2022-11-28T09:13:24.723Z,64.11
2022-11-28T09:18:27.574Z,64.10
2022-11-28T09:23:30.108Z,63.39
2022-11-28T09:28:32.489Z,63.28
2022-11-28T09:33:35.113Z,63.20
2022-11-28T09:38:38.371Z,62.73
2022-11-28T09:43:44.549Z,62.90
2022-11-28T09:48:51.441Z,62.16
2022-11-28T09:54:20.161Z,61.85
2022-11-28T09:59:28.580Z,61.96
2022-11-28T10:04:56.161Z,61.43
2022-11-28T10:10:19.706Z,61.26
2022-11-28T10:15:34.544Z,60.97
2022-11-28T10:20:46.196Z,60.50
2022-11-28T10:25:57.110Z,60.54
2022-11-28T10:31:34.528Z,59.46
2022-11-28T10:36:52.554Z,59.11
2022-11-28T10:42:14.957Z,59.44
2022-11-28T10:47:37.517Z,59.28
2022-11-28T10:52:50.465Z,58.33
2022-11-28T10:58:23.848Z,58.37
2022-11-28T11:03:30.387Z,58.17
2022-11-28T11:08:41.151Z,57.57
2022-11-28T11:14:01.190Z,57.66
2022-11-28T11:19:03.707Z,56.87
2022-11-28T11:24:16.847Z,57.04
2022-11-28T11:29:30.515Z,57.34
2022-11-28T11:34:44.593Z,56.72
2022-11-28T11:39:52.148Z,56.45
2022-11-28T11:44:55.276Z,56.60
2022-11-28T11:50:05.892Z,56.46
2022-11-28T11:55:16.226Z,55.74
2022-11-28T12:00:26.310Z,55.95
2022-11-28T12:05:46.704Z,55.06
2022-11-28T12:11:06.283Z,56.29
2022-11-28T12:16:41.123Z,55.59
2022-11-28T12:21:55.441Z,56.04
2022-11-28T12:27:13.615Z,55.65
2022-11-28T12:32:29.739Z,55.81
2022-11-28T12:38:11.675Z,56.10
2022-11-28T12:43:31.457Z,55.91
2022-11-28T12:49:17.924Z,55.83
2022-11-28T12:54:33.918Z,56.11
2022-11-28T12:59:51.053Z,55.26
2022-11-28T13:05:31.008Z,54.90
2022-11-28T13:11:05.325Z,55.20
2022-11-28T13:16:27.476Z,55.48
2022-11-28T13:21:46.093Z,55.09
2022-11-28T13:26:59.564Z,54.83
2022-11-28T13:32:25.907Z,55.08
2022-11-28T13:38:38.110Z,55.08
2022-11-28T13:43:54.393Z,55.44
2022-11-28T13:49:14.450Z,55.20
2022-11-28T13:54:20.658Z,54.96
2022-11-28T13:59:25.374Z,54.92
2022-11-28T14:04:30.193Z,54.64
2022-11-28T14:10:01.528Z,55.09
2022-11-28T14:15:22.375Z,55.47
2022-11-28T14:20:43.591Z,55.32
2022-11-28T14:25:49.560Z,55.55
2022-11-28T14:31:00.524Z,55.58
2022-11-28T14:36:23.422Z,54.93
2022-11-28T14:41:25.830Z,55.41
2022-11-28T14:46:29.720Z,55.58
2022-11-28T14:52:15.787Z,55.91
2022-11-28T14:57:36.469Z,55.31
2022-11-28T15:02:38.944Z,56.21
2022-11-28T15:07:59.243Z,56.46
2022-11-28T15:13:36.917Z,57.59
2022-11-28T15:18:44.285Z,57.28
2022-11-28T15:23:49.864Z,57.77
2022-11-28T15:29:08.959Z,58.25
2022-11-28T15:34:11.729Z,58.65
2022-11-28T15:39:40.858Z,58.82
2022-11-28T15:44:44.372Z,58.78
2022-11-28T15:49:47.259Z,58.59
2022-11-28T15:54:52.106Z,58.79
2022-11-28T15:59:57.506Z,59.29
2022-11-28T16:05:09.730Z,59.00
2022-11-28T16:10:24.092Z,59.38
2022-11-28T16:15:27.633Z,59.24
2022-11-28T16:20:35.054Z,59.68
2022-11-28T16:25:38.575Z,59.61
2022-11-28T16:30:48.285Z,59.84
2022-11-28T16:35:50.992Z,59.88
2022-11-28T16:41:00.630Z,59.55
2022-11-28T16:46:07.083Z,59.91
2022-11-28T16:51:33.536Z,59.85
2022-11-28T16:56:35.728Z,59.98
2022-11-28T17:01:38.590Z,60.39
2022-11-28T17:06:41.140Z,59.57
2022-11-28T17:11:48.018Z,59.44
2022-11-28T17:16:50.416Z,59.99
2022-11-28T17:21:55.397Z,59.53
2022-11-28T17:26:57.782Z,59.69
2022-11-28T17:32:02.310Z,59.62
2022-11-28T17:37:05.682Z,60.05
2022-11-28T17:42:07.960Z,60.36
2022-11-28T17:47:10.435Z,60.87
2022-11-28T17:52:12.855Z,62.37
2022-11-28T17:57:15.284Z,62.32
2022-11-28T18:02:17.520Z,62.48
2022-11-28T18:07:19.875Z,62.74
2022-11-28T18:12:22.203Z,62.60
2022-11-28T18:17:24.469Z,62.59
2022-11-28T18:22:26.817Z,62.67
2022-11-28T18:27:29.693Z,62.94
2022-11-28T18:32:33.608Z,62.84
2022-11-28T18:37:36.668Z,62.84
2022-11-28T18:42:39.478Z,63.21
2022-11-28T18:47:41.677Z,63.36
2022-11-28T18:52:43.825Z,63.20
2022-11-28T18:57:46.208Z,63.12
2022-11-28T19:02:48.474Z,63.09
2022-11-28T19:07:50.876Z,63.61
2022-11-28T19:12:53.125Z,64.18
2022-11-28T19:17:55.502Z,64.10
2022-11-28T19:22:57.894Z,64.01
2022-11-28T19:28:00.210Z,63.81
2022-11-28T19:33:02.663Z,63.93
2022-11-28T19:38:04.881Z,63.77
2022-11-28T19:43:07.344Z,64.26
2022-11-28T19:48:09.602Z,64.94
2022-11-28T19:53:11.987Z,64.72
2022-11-28T19:58:14.402Z,65.14
2022-11-28T20:03:17.456Z,64.38
2022-11-28T20:08:19.895Z,64.58
2022-11-28T20:13:22.060Z,64.28
2022-11-28T20:18:24.461Z,64.07
2022-11-28T20:23:27.667Z,64.65
2022-11-28T20:28:32.490Z,64.49
2022-11-28T20:33:34.898Z,64.75
2022-11-28T20:38:37.467Z,64.47
2022-11-28T20:43:41.542Z,64.61
2022-11-28T20:48:44.521Z,64.21
2022-11-28T20:53:47.213Z,63.93
2022-11-28T20:58:50.225Z,64.70
2022-11-28T21:03:53.001Z,64.80
2022-11-28T21:08:56.512Z,64.45
2022-11-28T21:13:58.984Z,64.22
2022-11-28T21:19:09.962Z,64.30
2022-11-28T21:24:13.614Z,64.44
2022-11-28T21:29:15.981Z,63.94
2022-11-28T21:34:19.818Z,64.16
2022-11-28T21:39:22.514Z,63.72
2022-11-28T21:44:24.896Z,63.75
2022-11-28T21:49:29.170Z,63.94
2022-11-28T21:54:31.344Z,64.34
2022-11-28T21:59:33.688Z,63.89
2022-11-28T22:04:35.977Z,63.83
2022-11-28T22:09:38.398Z,63.96
2022-11-28T22:14:40.865Z,64.09
2022-11-28T22:19:43.309Z,63.92
2022-11-28T22:24:45.933Z,64.14
2022-11-28T22:29:48.423Z,64.19
2022-11-28T22:34:51.160Z,63.84
2022-11-28T22:39:53.441Z,63.77
2022-11-28T22:44:55.707Z,63.68
2022-11-28T22:49:58.092Z,63.98
2022-11-28T22:55:00.528Z,63.61
2022-11-28T23:00:02.768Z,63.87
2022-11-28T23:05:05.528Z,64.23
2022-11-28T23:10:08.716Z,63.84
2022-11-28T23:15:11.325Z,64.15
2022-11-28T23:20:14.883Z,64.49
2022-11-28T23:25:17.248Z,64.57
2022-11-28T23:30:19.889Z,64.40
2022-11-28T23:35:22.217Z,64.69
2022-11-28T23:40:24.444Z,64.81
2022-11-28T23:45:27.224Z,64.33
2022-11-28T23:50:29.751Z,64.11
2022-11-28T23:55:34.981Z,64.30
